sensor_id;sensor_type;location;lat;lon;timestamp;P1;durP1;ratioP1;P2;durP2;ratioP2
14613;SDS011;7393;51.446;6.800;2023-01-16T00:01:01;5.93;;;1.80;;
14613;SDS011;7393;51.446;6.800;2023-01-16T00:03:28;7.40;;;1.83;;
14613;SDS011;7393;51.446;6.800;2023-01-16T00:05:55;3.23;;;1.23;;
14613;SDS011;7393;51.446;6.800;2023-01-16T00:08:22;5.80;;;1.67;;
14613;SDS011;7393;51.446;6.800;2023-01-16T00:10:48;3.70;;;1.80;;
14613;SDS011;7393;51.446;6.800;2023-01-16T00:13:15;3.30;;;1.07;;
14613;SDS011;7393;51.446;6.800;2023-01-16T00:15:45;3.87;;;1.50;;
14613;SDS011;7393;51.446;6.800;2023-01-16T00:18:14;5.10;;;1.27;;
14613;SDS011;7393;51.446;6.800;2023-01-16T00:20:41;2.30;;;0.97;;
14613;SDS011;7393;51.446;6.800;2023-01-16T00:23:08;3.27;;;1.20;;
14613;SDS011;7393;51.446;6.800;2023-01-16T00:25:37;3.23;;;1.10;;
14613;SDS011;7393;51.446;6.800;2023-01-16T00:28:05;4.77;;;1.20;;
14613;SDS011;7393;51.446;6.800;2023-01-16T00:30:31;3.63;;;1.20;;
14613;SDS011;7393;51.446;6.800;2023-01-16T00:32:58;6.33;;;1.00;;
14613;SDS011;7393;51.446;6.800;2023-01-16T00:35:26;4.93;;;1.70;;
14613;SDS011;7393;51.446;6.800;2023-01-16T00:37:53;6.93;;;1.70;;
14613;SDS011;7393;51.446;6.800;2023-01-16T00:40:20;3.50;;;1.20;;
14613;SDS011;7393;51.446;6.800;2023-01-16T00:42:47;2.83;;;0.90;;
14613;SDS011;7393;51.446;6.800;2023-01-16T00:45:14;4.57;;;1.47;;
14613;SDS011;7393;51.446;6.800;2023-01-16T00:47:40;3.80;;;1.40;;
14613;SDS011;7393;51.446;6.800;2023-01-16T00:50:07;4.13;;;1.40;;
14613;SDS011;7393;51.446;6.800;2023-01-16T00:52:36;2.60;;;1.10;;
14613;SDS011;7393;51.446;6.800;2023-01-16T00:55:03;4.57;;;1.30;;
14613;SDS011;7393;51.446;6.800;2023-01-16T00:57:30;6.40;;;1.50;;
14613;SDS011;7393;51.446;6.800;2023-01-16T00:59:57;4.63;;;1.20;;
14613;SDS011;7393;51.446;6.800;2023-01-16T01:02:24;2.73;;;1.17;;
14613;SDS011;7393;51.446;6.800;2023-01-16T01:04:51;6.10;;;1.40;;
14613;SDS011;7393;51.446;6.800;2023-01-16T01:07:18;2.23;;;0.83;;
14613;SDS011;7393;51.446;6.800;2023-01-16T01:09:46;4.03;;;1.40;;
14613;SDS011;7393;51.446;6.800;2023-01-16T01:12:13;4.53;;;0.87;;
14613;SDS011;7393;51.446;6.800;2023-01-16T01:14:40;2.70;;;0.90;;
14613;SDS011;7393;51.446;6.800;2023-01-16T01:17:07;2.20;;;0.90;;
14613;SDS011;7393;51.446;6.800;2023-01-16T01:19:34;3.50;;;0.73;;
14613;SDS011;7393;51.446;6.800;2023-01-16T01:22:01;3.27;;;0.80;;
14613;SDS011;7393;51.446;6.800;2023-01-16T01:24:28;3.33;;;1.00;;
14613;SDS011;7393;51.446;6.800;2023-01-16T01:26:56;3.43;;;0.90;;
14613;SDS011;7393;51.446;6.800;2023-01-16T01:29:23;4.33;;;1.10;;
14613;SDS011;7393;51.446;6.800;2023-01-16T01:31:50;1.97;;;0.90;;
14613;SDS011;7393;51.446;6.800;2023-01-16T01:34:16;1.70;;;1.00;;
14613;SDS011;7393;51.446;6.800;2023-01-16T01:36:43;2.77;;;0.80;;
14613;SDS011;7393;51.446;6.800;2023-01-16T01:39:10;2.00;;;0.97;;
14613;SDS011;7393;51.446;6.800;2023-01-16T01:41:37;3.63;;;1.27;;
14613;SDS011;7393;51.446;6.800;2023-01-16T01:47:06;5.00;;;1.20;;
14613;SDS011;7393;51.446;6.800;2023-01-16T01:49:33;4.23;;;1.37;;
14613;SDS011;7393;51.446;6.800;2023-01-16T01:52:00;2.47;;;1.00;;
14613;SDS011;7393;51.446;6.800;2023-01-16T01:54:30;3.47;;;1.13;;
14613;SDS011;7393;51.446;6.800;2023-01-16T01:57:01;3.87;;;0.83;;
14613;SDS011;7393;51.446;6.800;2023-01-16T01:59:33;7.17;;;1.13;;
14613;SDS011;7393;51.446;6.800;2023-01-16T02:02:04;5.53;;;1.20;;
14613;SDS011;7393;51.446;6.800;2023-01-16T02:04:36;4.33;;;0.90;;
14613;SDS011;7393;51.446;6.800;2023-01-16T02:07:08;6.97;;;1.60;;
14613;SDS011;7393;51.446;6.800;2023-01-16T02:09:37;4.73;;;1.17;;
14613;SDS011;7393;51.446;6.800;2023-01-16T02:15:07;5.60;;;1.30;;
14613;SDS011;7393;51.446;6.800;2023-01-16T02:17:38;3.07;;;1.00;;
14613;SDS011;7393;51.446;6.800;2023-01-16T02:20:27;2.40;;;0.97;;
14613;SDS011;7393;51.446;6.800;2023-01-16T02:32:19;3.10;;;1.10;;
14613;SDS011;7393;51.446;6.800;2023-01-16T02:34:57;5.13;;;1.20;;
14613;SDS011;7393;51.446;6.800;2023-01-16T02:37:46;2.50;;;0.87;;
14613;SDS011;7393;51.446;6.800;2023-01-16T02:40:21;3.93;;;1.03;;
14613;SDS011;7393;51.446;6.800;2023-01-16T02:42:59;5.00;;;1.13;;
14613;SDS011;7393;51.446;6.800;2023-01-16T02:45:36;4.30;;;1.10;;
14613;SDS011;7393;51.446;6.800;2023-01-16T02:48:11;1.63;;;0.80;;
14613;SDS011;7393;51.446;6.800;2023-01-16T02:50:44;4.20;;;1.17;;
14613;SDS011;7393;51.446;6.800;2023-01-16T02:53:21;5.07;;;1.23;;
14613;SDS011;7393;51.446;6.800;2023-01-16T02:55:53;3.33;;;0.97;;
14613;SDS011;7393;51.446;6.800;2023-01-16T02:58:27;5.23;;;1.30;;
14613;SDS011;7393;51.446;6.800;2023-01-16T03:00:57;4.23;;;0.97;;
14613;SDS011;7393;51.446;6.800;2023-01-16T03:03:35;4.73;;;1.03;;
14613;SDS011;7393;51.446;6.800;2023-01-16T03:06:06;4.70;;;0.87;;
14613;SDS011;7393;51.446;6.800;2023-01-16T03:08:44;2.47;;;1.03;;
14613;SDS011;7393;51.446;6.800;2023-01-16T03:11:18;4.00;;;1.00;;
14613;SDS011;7393;51.446;6.800;2023-01-16T03:13:55;3.10;;;1.00;;
14613;SDS011;7393;51.446;6.800;2023-01-16T03:16:36;4.63;;;1.03;;
14613;SDS011;7393;51.446;6.800;2023-01-16T03:19:14;4.83;;;1.00;;
14613;SDS011;7393;51.446;6.800;2023-01-16T03:21:49;6.03;;;1.60;;
14613;SDS011;7393;51.446;6.800;2023-01-16T03:24:27;2.73;;;0.90;;
14613;SDS011;7393;51.446;6.800;2023-01-16T03:27:04;5.07;;;1.10;;
14613;SDS011;7393;51.446;6.800;2023-01-16T03:29:38;5.40;;;0.90;;
14613;SDS011;7393;51.446;6.800;2023-01-16T03:32:09;6.53;;;0.97;;
14613;SDS011;7393;51.446;6.800;2023-01-16T03:34:45;5.43;;;1.00;;
14613;SDS011;7393;51.446;6.800;2023-01-16T03:37:17;5.13;;;1.00;;
14613;SDS011;7393;51.446;6.800;2023-01-16T03:39:48;4.57;;;1.17;;
14613;SDS011;7393;51.446;6.800;2023-01-16T03:42:22;2.70;;;0.90;;
14613;SDS011;7393;51.446;6.800;2023-01-16T03:44:55;4.30;;;1.03;;
14613;SDS011;7393;51.446;6.800;2023-01-16T03:47:29;3.40;;;1.00;;
14613;SDS011;7393;51.446;6.800;2023-01-16T03:50:05;3.37;;;0.90;;
14613;SDS011;7393;51.446;6.800;2023-01-16T03:52:35;2.70;;;1.20;;
14613;SDS011;7393;51.446;6.800;2023-01-16T03:55:07;0.90;;;0.70;;
14613;SDS011;7393;51.446;6.800;2023-01-16T03:57:40;1.50;;;0.80;;
14613;SDS011;7393;51.446;6.800;2023-01-16T04:00:12;2.17;;;0.60;;
14613;SDS011;7393;51.446;6.800;2023-01-16T04:02:41;2.40;;;1.17;;
14613;SDS011;7393;51.446;6.800;2023-01-16T04:05:15;2.40;;;0.83;;
14613;SDS011;7393;51.446;6.800;2023-01-16T04:07:44;3.23;;;0.63;;
14613;SDS011;7393;51.446;6.800;2023-01-16T04:10:17;2.67;;;0.93;;
14613;SDS011;7393;51.446;6.800;2023-01-16T04:12:48;1.60;;;0.80;;
14613;SDS011;7393;51.446;6.800;2023-01-16T04:15:19;1.50;;;0.50;;
14613;SDS011;7393;51.446;6.800;2023-01-16T04:17:47;1.93;;;0.70;;
14613;SDS011;7393;51.446;6.800;2023-01-16T04:20:15;0.97;;;0.63;;
14613;SDS011;7393;51.446;6.800;2023-01-16T04:22:46;2.30;;;0.70;;
14613;SDS011;7393;51.446;6.800;2023-01-16T04:25:13;2.17;;;0.80;;
14613;SDS011;7393;51.446;6.800;2023-01-16T04:27:40;1.53;;;0.60;;
14613;SDS011;7393;51.446;6.800;2023-01-16T04:30:07;1.83;;;1.10;;
14613;SDS011;7393;51.446;6.800;2023-01-16T04:32:35;2.70;;;0.80;;
14613;SDS011;7393;51.446;6.800;2023-01-16T04:35:02;4.10;;;0.73;;
14613;SDS011;7393;51.446;6.800;2023-01-16T04:37:31;2.63;;;0.97;;
14613;SDS011;7393;51.446;6.800;2023-01-16T04:39:58;3.03;;;0.73;;
14613;SDS011;7393;51.446;6.800;2023-01-16T04:42:25;2.20;;;0.80;;
14613;SDS011;7393;51.446;6.800;2023-01-16T04:44:52;1.83;;;0.63;;
14613;SDS011;7393;51.446;6.800;2023-01-16T04:47:18;1.37;;;0.60;;
14613;SDS011;7393;51.446;6.800;2023-01-16T04:49:45;1.87;;;0.70;;
14613;SDS011;7393;51.446;6.800;2023-01-16T04:52:12;3.13;;;0.73;;
14613;SDS011;7393;51.446;6.800;2023-01-16T04:54:41;1.47;;;0.70;;
14613;SDS011;7393;51.446;6.800;2023-01-16T04:57:07;2.33;;;0.77;;
14613;SDS011;7393;51.446;6.800;2023-01-16T04:59:34;1.80;;;0.57;;
14613;SDS011;7393;51.446;6.800;2023-01-16T05:02:01;2.30;;;0.80;;
14613;SDS011;7393;51.446;6.800;2023-01-16T05:04:28;2.53;;;0.80;;
14613;SDS011;7393;51.446;6.800;2023-01-16T05:06:55;2.83;;;0.70;;
14613;SDS011;7393;51.446;6.800;2023-01-16T05:09:21;2.83;;;0.97;;
14613;SDS011;7393;51.446;6.800;2023-01-16T05:11:49;4.40;;;1.00;;
14613;SDS011;7393;51.446;6.800;2023-01-16T05:14:16;2.17;;;0.70;;
14613;SDS011;7393;51.446;6.800;2023-01-16T05:16:43;2.07;;;0.60;;
14613;SDS011;7393;51.446;6.800;2023-01-16T05:19:10;1.40;;;0.60;;
14613;SDS011;7393;51.446;6.800;2023-01-16T05:21:36;1.80;;;0.90;;
14613;SDS011;7393;51.446;6.800;2023-01-16T05:24:04;1.60;;;0.80;;
14613;SDS011;7393;51.446;6.800;2023-01-16T05:26:31;4.63;;;1.00;;
14613;SDS011;7393;51.446;6.800;2023-01-16T05:28:59;1.60;;;1.00;;
14613;SDS011;7393;51.446;6.800;2023-01-16T05:31:26;1.90;;;0.90;;
14613;SDS011;7393;51.446;6.800;2023-01-16T05:33:53;1.70;;;0.70;;
14613;SDS011;7393;51.446;6.800;2023-01-16T05:36:20;3.10;;;1.20;;
14613;SDS011;7393;51.446;6.800;2023-01-16T05:38:46;1.77;;;0.90;;
14613;SDS011;7393;51.446;6.800;2023-01-16T05:41:15;3.63;;;1.00;;
14613;SDS011;7393;51.446;6.800;2023-01-16T05:43:42;4.10;;;0.90;;
14613;SDS011;7393;51.446;6.800;2023-01-16T05:46:10;4.43;;;1.20;;
14613;SDS011;7393;51.446;6.800;2023-01-16T05:48:37;3.07;;;1.03;;
14613;SDS011;7393;51.446;6.800;2023-01-16T05:51:04;3.47;;;0.83;;
14613;SDS011;7393;51.446;6.800;2023-01-16T05:53:31;2.60;;;1.10;;
14613;SDS011;7393;51.446;6.800;2023-01-16T05:55:58;2.97;;;0.90;;
14613;SDS011;7393;51.446;6.800;2023-01-16T05:58:32;5.73;;;1.30;;
14613;SDS011;7393;51.446;6.800;2023-01-16T06:00:59;2.17;;;0.60;;
14613;SDS011;7393;51.446;6.800;2023-01-16T06:03:27;5.00;;;0.77;;
14613;SDS011;7393;51.446;6.800;2023-01-16T06:05:54;1.50;;;0.60;;
14613;SDS011;7393;51.446;6.800;2023-01-16T06:08:23;2.33;;;0.73;;
14613;SDS011;7393;51.446;6.800;2023-01-16T06:10:50;2.30;;;0.60;;
14613;SDS011;7393;51.446;6.800;2023-01-16T06:13:17;2.77;;;0.77;;
14613;SDS011;7393;51.446;6.800;2023-01-16T06:15:44;2.40;;;0.80;;
14613;SDS011;7393;51.446;6.800;2023-01-16T06:18:10;2.37;;;0.70;;
14613;SDS011;7393;51.446;6.800;2023-01-16T06:20:40;1.47;;;1.00;;
14613;SDS011;7393;51.446;6.800;2023-01-16T06:23:07;3.27;;;0.80;;
14613;SDS011;7393;51.446;6.800;2023-01-16T06:25:34;2.23;;;0.90;;
14613;SDS011;7393;51.446;6.800;2023-01-16T06:28:00;2.47;;;0.83;;
14613;SDS011;7393;51.446;6.800;2023-01-16T06:30:27;2.63;;;0.87;;
14613;SDS011;7393;51.446;6.800;2023-01-16T06:32:54;2.03;;;0.80;;
14613;SDS011;7393;51.446;6.800;2023-01-16T06:35:21;2.73;;;1.13;;
14613;SDS011;7393;51.446;6.800;2023-01-16T06:37:49;1.47;;;0.67;;
14613;SDS011;7393;51.446;6.800;2023-01-16T06:40:16;1.67;;;0.93;;
14613;SDS011;7393;51.446;6.800;2023-01-16T06:42:43;2.27;;;0.73;;
14613;SDS011;7393;51.446;6.800;2023-01-16T06:45:10;2.47;;;0.73;;
14613;SDS011;7393;51.446;6.800;2023-01-16T06:47:37;1.47;;;0.73;;
14613;SDS011;7393;51.446;6.800;2023-01-16T06:50:04;0.83;;;0.40;;
14613;SDS011;7393;51.446;6.800;2023-01-16T06:52:31;1.70;;;0.57;;
14613;SDS011;7393;51.446;6.800;2023-01-16T06:55:01;0.57;;;0.50;;
14613;SDS011;7393;51.446;6.800;2023-01-16T06:57:28;2.97;;;0.80;;
14613;SDS011;7393;51.446;6.800;2023-01-16T06:59:54;4.33;;;0.77;;
14613;SDS011;7393;51.446;6.800;2023-01-16T07:02:21;0.97;;;0.60;;
14613;SDS011;7393;51.446;6.800;2023-01-16T07:04:48;2.10;;;0.57;;
14613;SDS011;7393;51.446;6.800;2023-01-16T07:07:15;1.50;;;0.50;;
14613;SDS011;7393;51.446;6.800;2023-01-16T07:09:42;1.27;;;0.57;;
14613;SDS011;7393;51.446;6.800;2023-01-16T07:12:10;1.07;;;0.60;;
14613;SDS011;7393;51.446;6.800;2023-01-16T07:14:37;1.63;;;0.60;;
14613;SDS011;7393;51.446;6.800;2023-01-16T07:17:21;1.53;;;0.67;;
14613;SDS011;7393;51.446;6.800;2023-01-16T07:20:05;1.70;;;0.70;;
14613;SDS011;7393;51.446;6.800;2023-01-16T07:22:54;2.73;;;0.93;;
14613;SDS011;7393;51.446;6.800;2023-01-16T07:25:31;3.13;;;0.80;;
14613;SDS011;7393;51.446;6.800;2023-01-16T07:28:01;1.00;;;0.70;;
14613;SDS011;7393;51.446;6.800;2023-01-16T07:30:28;0.87;;;0.60;;
14613;SDS011;7393;51.446;6.800;2023-01-16T07:32:55;1.37;;;0.90;;
14613;SDS011;7393;51.446;6.800;2023-01-16T07:35:22;2.13;;;0.70;;
14613;SDS011;7393;51.446;6.800;2023-01-16T07:37:49;2.33;;;0.80;;
14613;SDS011;7393;51.446;6.800;2023-01-16T07:40:21;3.13;;;1.00;;
14613;SDS011;7393;51.446;6.800;2023-01-16T07:42:49;4.80;;;1.20;;
14613;SDS011;7393;51.446;6.800;2023-01-16T07:45:17;2.50;;;1.10;;
14613;SDS011;7393;51.446;6.800;2023-01-16T07:47:44;3.37;;;1.10;;
14613;SDS011;7393;51.446;6.800;2023-01-16T07:50:11;4.37;;;1.20;;
14613;SDS011;7393;51.446;6.800;2023-01-16T07:52:37;5.33;;;1.40;;
14613;SDS011;7393;51.446;6.800;2023-01-16T07:55:05;5.03;;;1.00;;
14613;SDS011;7393;51.446;6.800;2023-01-16T07:57:33;2.57;;;1.30;;
14613;SDS011;7393;51.446;6.800;2023-01-16T08:00:02;1.10;;;1.00;;
14613;SDS011;7393;51.446;6.800;2023-01-16T08:02:30;4.40;;;1.63;;
14613;SDS011;7393;51.446;6.800;2023-01-16T08:04:57;6.87;;;1.30;;
14613;SDS011;7393;51.446;6.800;2023-01-16T08:07:24;2.30;;;0.93;;
14613;SDS011;7393;51.446;6.800;2023-01-16T08:09:51;2.80;;;1.20;;
14613;SDS011;7393;51.446;6.800;2023-01-16T08:12:17;4.17;;;1.20;;
14613;SDS011;7393;51.446;6.800;2023-01-16T08:14:44;3.33;;;1.53;;
14613;SDS011;7393;51.446;6.800;2023-01-16T08:17:11;6.67;;;1.90;;
14613;SDS011;7393;51.446;6.800;2023-01-16T08:19:39;2.70;;;1.03;;
14613;SDS011;7393;51.446;6.800;2023-01-16T08:22:06;5.77;;;1.13;;
14613;SDS011;7393;51.446;6.800;2023-01-16T08:24:33;1.17;;;1.00;;
14613;SDS011;7393;51.446;6.800;2023-01-16T08:27:00;2.63;;;1.17;;
14613;SDS011;7393;51.446;6.800;2023-01-16T08:29:27;2.10;;;0.93;;
14613;SDS011;7393;51.446;6.800;2023-01-16T08:31:54;3.97;;;1.20;;
14613;SDS011;7393;51.446;6.800;2023-01-16T08:34:20;3.40;;;1.23;;
14613;SDS011;7393;51.446;6.800;2023-01-16T08:36:48;6.97;;;1.37;;
14613;SDS011;7393;51.446;6.800;2023-01-16T08:39:15;4.40;;;1.47;;
14613;SDS011;7393;51.446;6.800;2023-01-16T08:41:42;2.13;;;1.07;;
14613;SDS011;7393;51.446;6.800;2023-01-16T08:44:26;3.30;;;1.47;;
14613;SDS011;7393;51.446;6.800;2023-01-16T08:47:10;2.73;;;0.90;;
14613;SDS011;7393;51.446;6.800;2023-01-16T08:49:57;4.07;;;1.10;;
14613;SDS011;7393;51.446;6.800;2023-01-16T08:52:43;3.70;;;1.30;;
14613;SDS011;7393;51.446;6.800;2023-01-16T08:55:11;4.53;;;1.07;;
14613;SDS011;7393;51.446;6.800;2023-01-16T08:57:37;3.47;;;1.37;;
14613;SDS011;7393;51.446;6.800;2023-01-16T09:00:05;4.30;;;1.30;;
14613;SDS011;7393;51.446;6.800;2023-01-16T09:02:33;7.00;;;1.27;;
14613;SDS011;7393;51.446;6.800;2023-01-16T09:05:01;3.67;;;0.97;;
14613;SDS011;7393;51.446;6.800;2023-01-16T09:07:28;4.63;;;1.10;;
14613;SDS011;7393;51.446;6.800;2023-01-16T09:09:56;4.90;;;1.23;;
14613;SDS011;7393;51.446;6.800;2023-01-16T09:12:23;3.30;;;0.70;;
14613;SDS011;7393;51.446;6.800;2023-01-16T09:15:07;3.37;;;1.27;;
14613;SDS011;7393;51.446;6.800;2023-01-16T09:17:35;4.27;;;1.00;;
14613;SDS011;7393;51.446;6.800;2023-01-16T09:20:01;3.30;;;1.30;;
14613;SDS011;7393;51.446;6.800;2023-01-16T09:22:28;3.23;;;1.00;;
14613;SDS011;7393;51.446;6.800;2023-01-16T09:24:56;2.53;;;0.90;;
14613;SDS011;7393;51.446;6.800;2023-01-16T09:27:23;2.07;;;1.10;;
14613;SDS011;7393;51.446;6.800;2023-01-16T09:29:50;3.27;;;1.00;;
14613;SDS011;7393;51.446;6.800;2023-01-16T09:32:17;1.70;;;0.60;;
14613;SDS011;7393;51.446;6.800;2023-01-16T09:34:44;5.33;;;1.13;;
14613;SDS011;7393;51.446;6.800;2023-01-16T09:37:11;2.23;;;0.73;;
14613;SDS011;7393;51.446;6.800;2023-01-16T09:39:38;4.23;;;0.97;;
14613;SDS011;7393;51.446;6.800;2023-01-16T09:45:24;3.23;;;0.90;;
14613;SDS011;7393;51.446;6.800;2023-01-16T09:47:54;1.80;;;0.80;;
14613;SDS011;7393;51.446;6.800;2023-01-16T09:50:28;2.83;;;1.33;;
14613;SDS011;7393;51.446;6.800;2023-01-16T09:53:00;8.13;;;0.67;;
14613;SDS011;7393;51.446;6.800;2023-01-16T09:55:47;1.43;;;0.60;;
14613;SDS011;7393;51.446;6.800;2023-01-16T09:58:42;4.97;;;0.87;;
14613;SDS011;7393;51.446;6.800;2023-01-16T10:01:14;1.90;;;0.50;;
14613;SDS011;7393;51.446;6.800;2023-01-16T10:03:45;3.13;;;0.83;;
14613;SDS011;7393;51.446;6.800;2023-01-16T10:06:14;4.10;;;0.77;;
14613;SDS011;7393;51.446;6.800;2023-01-16T10:08:49;4.23;;;0.87;;
14613;SDS011;7393;51.446;6.800;2023-01-16T10:11:26;3.73;;;0.80;;
14613;SDS011;7393;51.446;6.800;2023-01-16T10:14:07;4.30;;;0.93;;
14613;SDS011;7393;51.446;6.800;2023-01-16T10:16:45;2.50;;;0.90;;
14613;SDS011;7393;51.446;6.800;2023-01-16T10:19:20;2.13;;;0.87;;
14613;SDS011;7393;51.446;6.800;2023-01-16T10:22:01;3.00;;;1.63;;
14613;SDS011;7393;51.446;6.800;2023-01-16T10:24:44;5.83;;;1.00;;
14613;SDS011;7393;51.446;6.800;2023-01-16T10:27:17;1.60;;;1.03;;
14613;SDS011;7393;51.446;6.800;2023-01-16T10:29:52;4.83;;;0.80;;
14613;SDS011;7393;51.446;6.800;2023-01-16T10:32:24;1.23;;;0.60;;
14613;SDS011;7393;51.446;6.800;2023-01-16T10:34:54;4.20;;;1.00;;
14613;SDS011;7393;51.446;6.800;2023-01-16T10:37:28;1.83;;;0.90;;
14613;SDS011;7393;51.446;6.800;2023-01-16T10:39:56;3.77;;;1.40;;
14613;SDS011;7393;51.446;6.800;2023-01-16T10:42:27;0.80;;;0.40;;
14613;SDS011;7393;51.446;6.800;2023-01-16T10:45:17;1.13;;;0.60;;
14613;SDS011;7393;51.446;6.800;2023-01-16T10:48:06;6.10;;;1.10;;
14613;SDS011;7393;51.446;6.800;2023-01-16T10:50:53;1.03;;;0.73;;
14613;SDS011;7393;51.446;6.800;2023-01-16T10:53:20;1.47;;;0.60;;
14613;SDS011;7393;51.446;6.800;2023-01-16T10:55:46;1.23;;;0.50;;
14613;SDS011;7393;51.446;6.800;2023-01-16T10:58:22;3.70;;;0.70;;
14613;SDS011;7393;51.446;6.800;2023-01-16T11:00:54;1.93;;;0.60;;
14613;SDS011;7393;51.446;6.800;2023-01-16T11:03:27;1.27;;;0.60;;
14613;SDS011;7393;51.446;6.800;2023-01-16T11:06:05;0.83;;;0.50;;
14613;SDS011;7393;51.446;6.800;2023-01-16T11:08:34;0.93;;;0.60;;
14613;SDS011;7393;51.446;6.800;2023-01-16T11:11:01;3.40;;;0.53;;
14613;SDS011;7393;51.446;6.800;2023-01-16T11:13:28;2.47;;;0.60;;
14613;SDS011;7393;51.446;6.800;2023-01-16T11:16:19;1.93;;;0.70;;
14613;SDS011;7393;51.446;6.800;2023-01-16T11:21:53;1.23;;;0.40;;
14613;SDS011;7393;51.446;6.800;2023-01-16T11:24:24;2.20;;;0.60;;
14613;SDS011;7393;51.446;6.800;2023-01-16T11:26:58;1.23;;;0.60;;
14613;SDS011;7393;51.446;6.800;2023-01-16T11:29:25;0.60;;;0.50;;
14613;SDS011;7393;51.446;6.800;2023-01-16T11:32:03;1.80;;;0.70;;
14613;SDS011;7393;51.446;6.800;2023-01-16T11:34:32;0.50;;;0.50;;
14613;SDS011;7393;51.446;6.800;2023-01-16T11:37:00;1.13;;;0.63;;
14613;SDS011;7393;51.446;6.800;2023-01-16T11:39:30;1.27;;;0.70;;
14613;SDS011;7393;51.446;6.800;2023-01-16T11:41:59;0.63;;;0.40;;
14613;SDS011;7393;51.446;6.800;2023-01-16T11:44:52;1.50;;;0.30;;
14613;SDS011;7393;51.446;6.800;2023-01-16T11:47:40;1.60;;;0.30;;
14613;SDS011;7393;51.446;6.800;2023-01-16T11:50:20;0.60;;;0.37;;
14613;SDS011;7393;51.446;6.800;2023-01-16T11:52:51;1.00;;;0.40;;
14613;SDS011;7393;51.446;6.800;2023-01-16T11:55:18;1.33;;;0.53;;
14613;SDS011;7393;51.446;6.800;2023-01-16T11:57:49;1.17;;;0.60;;
14613;SDS011;7393;51.446;6.800;2023-01-16T12:06:06;0.53;;;0.50;;
14613;SDS011;7393;51.446;6.800;2023-01-16T12:08:50;0.70;;;0.43;;
14613;SDS011;7393;51.446;6.800;2023-01-16T12:11:33;0.50;;;0.20;;
14613;SDS011;7393;51.446;6.800;2023-01-16T12:14:25;1.73;;;0.67;;
14613;SDS011;7393;51.446;6.800;2023-01-16T12:17:01;2.00;;;0.50;;
14613;SDS011;7393;51.446;6.800;2023-01-16T12:22:31;0.47;;;0.47;;
14613;SDS011;7393;51.446;6.800;2023-01-16T12:25:32;1.60;;;0.40;;
14613;SDS011;7393;51.446;6.800;2023-01-16T12:28:11;0.70;;;0.50;;
14613;SDS011;7393;51.446;6.800;2023-01-16T12:30:54;1.17;;;0.40;;
14613;SDS011;7393;51.446;6.800;2023-01-16T12:33:42;1.77;;;0.60;;
14613;SDS011;7393;51.446;6.800;2023-01-16T12:36:15;3.50;;;0.70;;
14613;SDS011;7393;51.446;6.800;2023-01-16T12:38:50;1.80;;;0.60;;
14613;SDS011;7393;51.446;6.800;2023-01-16T12:41:26;0.97;;;0.47;;
14613;SDS011;7393;51.446;6.800;2023-01-16T12:44:29;0.97;;;0.67;;
14613;SDS011;7393;51.446;6.800;2023-01-16T12:50:01;1.13;;;0.60;;
14613;SDS011;7393;51.446;6.800;2023-01-16T12:52:44;1.07;;;0.60;;
14613;SDS011;7393;51.446;6.800;2023-01-16T12:55:27;1.17;;;0.50;;
14613;SDS011;7393;51.446;6.800;2023-01-16T12:58:09;0.97;;;0.43;;
14613;SDS011;7393;51.446;6.800;2023-01-16T13:00:40;0.80;;;0.57;;
14613;SDS011;7393;51.446;6.800;2023-01-16T13:03:21;1.27;;;0.70;;
14613;SDS011;7393;51.446;6.800;2023-01-16T13:05:54;2.40;;;0.60;;
14613;SDS011;7393;51.446;6.800;2023-01-16T13:08:24;2.63;;;0.60;;
14613;SDS011;7393;51.446;6.800;2023-01-16T13:10:56;1.27;;;0.70;;
14613;SDS011;7393;51.446;6.800;2023-01-16T13:13:45;1.73;;;0.90;;
14613;SDS011;7393;51.446;6.800;2023-01-16T13:16:19;1.67;;;0.60;;
14613;SDS011;7393;51.446;6.800;2023-01-16T13:18:50;0.97;;;0.70;;
14613;SDS011;7393;51.446;6.800;2023-01-16T13:21:21;1.33;;;0.60;;
14613;SDS011;7393;51.446;6.800;2023-01-16T13:23:51;2.57;;;0.80;;
14613;SDS011;7393;51.446;6.800;2023-01-16T13:26:22;1.63;;;0.70;;
14613;SDS011;7393;51.446;6.800;2023-01-16T13:28:52;1.83;;;0.70;;
14613;SDS011;7393;51.446;6.800;2023-01-16T13:31:27;2.37;;;0.40;;
14613;SDS011;7393;51.446;6.800;2023-01-16T13:33:59;1.40;;;0.70;;
14613;SDS011;7393;51.446;6.800;2023-01-16T13:40:02;1.00;;;0.70;;
14613;SDS011;7393;51.446;6.800;2023-01-16T13:42:59;0.50;;;0.50;;
14613;SDS011;7393;51.446;6.800;2023-01-16T13:45:43;1.13;;;0.70;;
14613;SDS011;7393;51.446;6.800;2023-01-16T13:48:17;0.97;;;0.63;;
14613;SDS011;7393;51.446;6.800;2023-01-16T13:50:48;1.73;;;0.70;;
14613;SDS011;7393;51.446;6.800;2023-01-16T13:53:19;2.57;;;0.80;;
14613;SDS011;7393;51.446;6.800;2023-01-16T13:55:47;1.83;;;0.80;;
14613;SDS011;7393;51.446;6.800;2023-01-16T13:58:17;1.57;;;0.80;;
14613;SDS011;7393;51.446;6.800;2023-01-16T14:00:46;4.17;;;1.07;;
14613;SDS011;7393;51.446;6.800;2023-01-16T14:03:22;1.03;;;0.60;;
14613;SDS011;7393;51.446;6.800;2023-01-16T14:05:51;4.87;;;0.90;;
14613;SDS011;7393;51.446;6.800;2023-01-16T14:08:24;1.87;;;0.70;;
14613;SDS011;7393;51.446;6.800;2023-01-16T14:11:32;1.40;;;0.77;;
14613;SDS011;7393;51.446;6.800;2023-01-16T14:17:20;1.93;;;0.83;;
14613;SDS011;7393;51.446;6.800;2023-01-16T14:19:57;1.73;;;0.90;;
14613;SDS011;7393;51.446;6.800;2023-01-16T14:22:26;2.17;;;0.83;;
14613;SDS011;7393;51.446;6.800;2023-01-16T14:25:21;3.83;;;0.87;;
14613;SDS011;7393;51.446;6.800;2023-01-16T14:27:50;1.80;;;0.60;;
14613;SDS011;7393;51.446;6.800;2023-01-16T14:30:23;1.17;;;0.70;;
14613;SDS011;7393;51.446;6.800;2023-01-16T14:32:53;2.60;;;0.60;;
14613;SDS011;7393;51.446;6.800;2023-01-16T14:35:23;1.67;;;0.60;;
14613;SDS011;7393;51.446;6.800;2023-01-16T14:37:53;4.00;;;0.83;;
14613;SDS011;7393;51.446;6.800;2023-01-16T14:40:25;3.10;;;0.83;;
14613;SDS011;7393;51.446;6.800;2023-01-16T14:43:08;1.40;;;0.90;;
14613;SDS011;7393;51.446;6.800;2023-01-16T14:55:43;2.70;;;1.00;;
14613;SDS011;7393;51.446;6.800;2023-01-16T14:58:13;2.47;;;0.73;;
14613;SDS011;7393;51.446;6.800;2023-01-16T15:00:47;2.03;;;0.80;;
14613;SDS011;7393;51.446;6.800;2023-01-16T15:03:20;1.70;;;0.60;;
14613;SDS011;7393;51.446;6.800;2023-01-16T15:05:50;1.30;;;0.50;;
14613;SDS011;7393;51.446;6.800;2023-01-16T15:08:21;1.60;;;0.60;;
14613;SDS011;7393;51.446;6.800;2023-01-16T15:10:51;2.67;;;0.90;;
14613;SDS011;7393;51.446;6.800;2023-01-16T15:13:23;1.10;;;0.60;;
14613;SDS011;7393;51.446;6.800;2023-01-16T15:15:52;1.50;;;0.57;;
14613;SDS011;7393;51.446;6.800;2023-01-16T15:18:21;2.20;;;0.70;;
14613;SDS011;7393;51.446;6.800;2023-01-16T15:21:12;2.20;;;0.60;;
14613;SDS011;7393;51.446;6.800;2023-01-16T15:23:57;2.17;;;0.70;;
14613;SDS011;7393;51.446;6.800;2023-01-16T15:29:19;2.40;;;0.70;;
14613;SDS011;7393;51.446;6.800;2023-01-16T15:32:03;2.33;;;0.70;;
14613;SDS011;7393;51.446;6.800;2023-01-16T15:34:40;0.40;;;0.40;;
14613;SDS011;7393;51.446;6.800;2023-01-16T15:37:14;4.77;;;1.07;;
14613;SDS011;7393;51.446;6.800;2023-01-16T15:39:46;1.43;;;0.73;;
14613;SDS011;7393;51.446;6.800;2023-01-16T15:42:15;3.50;;;0.80;;
14613;SDS011;7393;51.446;6.800;2023-01-16T15:45:12;2.43;;;0.83;;
14613;SDS011;7393;51.446;6.800;2023-01-16T15:48:07;2.70;;;1.20;;
14613;SDS011;7393;51.446;6.800;2023-01-16T15:50:52;4.30;;;1.20;;
14613;SDS011;7393;51.446;6.800;2023-01-16T15:53:22;4.27;;;0.93;;
14613;SDS011;7393;51.446;6.800;2023-01-16T15:55:52;3.20;;;0.97;;
14613;SDS011;7393;51.446;6.800;2023-01-16T15:58:23;2.13;;;0.90;;
14613;SDS011;7393;51.446;6.800;2023-01-16T16:00:54;1.10;;;0.70;;
14613;SDS011;7393;51.446;6.800;2023-01-16T16:03:22;3.00;;;1.03;;
14613;SDS011;7393;51.446;6.800;2023-01-16T16:05:51;3.17;;;1.20;;
14613;SDS011;7393;51.446;6.800;2023-01-16T16:08:22;2.03;;;0.70;;
14613;SDS011;7393;51.446;6.800;2023-01-16T16:10:51;3.13;;;1.10;;
14613;SDS011;7393;51.446;6.800;2023-01-16T16:13:36;5.20;;;0.97;;
14613;SDS011;7393;51.446;6.800;2023-01-16T16:16:14;2.63;;;1.00;;
14613;SDS011;7393;51.446;6.800;2023-01-16T16:19:02;2.90;;;1.00;;
14613;SDS011;7393;51.446;6.800;2023-01-16T16:21:30;2.57;;;1.30;;